Station History

Weather Underground - logo

Station Historical Data
Daily Summary for November 14, 2017 Units:  English    Metric   Both
« Previous Day
Next Day »
Daily Weekly Monthly Yearly Custom
  High: Low: Average:
Temperature: 69.1 °F 44.2 °F 55 °F
Dew Point: 55.1 °F 42.1 °F 49 °F
Humidity: 94 % 57 % 82 %
Wind Speed: 5.8 mph 0.0 mph 0.5 mph
Wind Gust: 5.8 mph - -
Wind:- - South
Pressure: 30.25 in 30.11 in -
Precipitation: 0.00 in    
Historical Graphs
 
 
Tabular Data for November 14, 2017
Time Temperature Dew Point Pressure Wind Wind Speed Wind Gust Humidity Rainfall Rate (Hourly)
00:00 49.7 °F 46.3 °F 30.20 in Calm     88 % 0.00 in
00:05 49.4 °F 46.0 °F 30.20 in Calm     88 % 0.00 in
00:10 49.2 °F 45.8 °F 30.20 in Calm     88 % 0.00 in
00:15 49.2 °F 46.1 °F 30.20 in Calm     89 % 0.00 in
00:20 49.3 °F 46.2 °F 30.20 in Calm     89 % 0.00 in
00:25 49.4 °F 46.3 °F 30.20 in Calm     89 % 0.00 in
00:30 49.5 °F 46.4 °F 30.20 in Calm     89 % 0.00 in
00:35 49.5 °F 46.1 °F 30.20 in Calm     88 % 0.00 in
00:40 48.9 °F 45.5 °F 30.20 in Calm     88 % 0.00 in
00:45 48.5 °F 45.1 °F 30.20 in Calm     88 % 0.00 in
00:50 48.2 °F 45.1 °F 30.20 in Calm     89 % 0.00 in
00:55 48.1 °F 45.0 °F 30.20 in Calm     89 % 0.00 in
01:00 48.0 °F 44.9 °F 30.20 in Calm     89 % 0.00 in
01:05 47.9 °F 45.1 °F 30.20 in Calm     90 % 0.00 in
01:10 47.7 °F 44.6 °F 30.20 in Calm     89 % 0.00 in
01:15 47.4 °F 44.6 °F 30.20 in Calm     90 % 0.00 in
01:20 47.3 °F 44.5 °F 30.20 in Calm     90 % 0.00 in
01:25 47.3 °F 44.8 °F 30.20 in Calm     91 % 0.00 in
01:30 47.2 °F 44.7 °F 30.20 in Calm     91 % 0.00 in
01:35 47.1 °F 44.6 °F 30.20 in Calm     91 % 0.00 in
01:40 46.9 °F 44.4 °F 30.20 in Calm     91 % 0.00 in
01:45 46.8 °F 44.3 °F 30.20 in Calm     91 % 0.00 in
01:50 46.5 °F 43.7 °F 30.20 in Calm     90 % 0.00 in
01:55 46.4 °F 43.9 °F 30.20 in Calm     91 % 0.00 in
02:00 46.2 °F 43.7 °F 30.20 in Calm     91 % 0.00 in
02:05 46.2 °F 43.7 °F 30.20 in Calm     91 % 0.00 in
02:10 46.2 °F 43.7 °F 30.19 in Calm     91 % 0.00 in
02:15 46.3 °F 44.1 °F 30.19 in Calm     92 % 0.00 in
02:20 46.4 °F 44.2 °F 30.19 in Calm     92 % 0.00 in
02:25 46.3 °F 44.1 °F 30.19 in Calm     92 % 0.00 in
02:30 46.3 °F 44.1 °F 30.19 in Calm     92 % 0.00 in
02:35 46.3 °F 44.1 °F 30.19 in Calm     92 % 0.00 in
02:40 46.3 °F 44.1 °F 30.20 in Calm     92 % 0.00 in
02:46 46.2 °F 44.0 °F 30.20 in Calm     92 % 0.00 in
02:51 46.1 °F 43.9 °F 30.20 in Calm     92 % 0.00 in
02:56 46.1 °F 43.9 °F 30.20 in Calm     92 % 0.00 in
03:01 46.1 °F 43.9 °F 30.20 in Calm     92 % 0.00 in
03:06 46.0 °F 43.8 °F 30.20 in Calm     92 % 0.00 in
03:11 46.0 °F 43.8 °F 30.21 in Calm     92 % 0.00 in
03:16 46.1 °F 44.2 °F 30.21 in Calm     93 % 0.00 in
03:21 46.1 °F 44.2 °F 30.21 in Calm     93 % 0.00 in
03:26 46.0 °F 44.1 °F 30.21 in Calm     93 % 0.00 in
03:31 45.8 °F 43.6 °F 30.21 in Calm     92 % 0.00 in
03:36 45.9 °F 43.7 °F 30.21 in Calm     92 % 0.00 in
03:41 46.1 °F 44.2 °F 30.21 in Calm     93 % 0.00 in
03:46 46.5 °F 44.3 °F 30.21 in Calm     92 % 0.00 in
03:51 46.6 °F 44.4 °F 30.21 in Calm     92 % 0.00 in
03:56 46.5 °F 44.3 °F 30.21 in Calm     92 % 0.00 in
04:01 46.4 °F 44.2 °F 30.22 in Calm     92 % 0.00 in
04:06 46.5 °F 44.6 °F 30.22 in Calm     93 % 0.00 in
04:11 46.9 °F 45.0 °F 30.22 in Calm     93 % 0.00 in
04:16 46.9 °F 45.0 °F 30.21 in Calm     93 % 0.00 in
04:21 46.9 °F 45.0 °F 30.21 in Calm     93 % 0.00 in
04:26 47.0 °F 45.1 °F 30.21 in Calm     93 % 0.00 in
04:31 47.0 °F 44.8 °F 30.21 in Calm     92 % 0.00 in
04:36 47.0 °F 44.8 °F 30.21 in Calm     92 % 0.00 in
04:41 47.1 °F 45.2 °F 30.21 in Calm     93 % 0.00 in
04:46 46.8 °F 44.3 °F 30.21 in North 1.2 mph   91 % 0.00 in
04:51 46.3 °F 43.8 °F 30.21 in Calm     91 % 0.00 in
04:56 46.0 °F 43.8 °F 30.21 in Calm     92 % 0.00 in
05:01 46.1 °F 43.9 °F 30.21 in Calm     92 % 0.00 in
05:06 46.3 °F 44.4 °F 30.21 in Calm     93 % 0.00 in
05:11 46.4 °F 44.5 °F 30.21 in Calm     93 % 0.00 in
05:17 46.3 °F 44.1 °F 30.20 in Calm     92 % 0.00 in
05:22 46.2 °F 44.0 °F 30.21 in Calm     92 % 0.00 in
05:27 45.9 °F 43.7 °F 30.21 in Calm     92 % 0.00 in
05:32 45.8 °F 43.6 °F 30.21 in Calm     92 % 0.00 in
05:37 45.7 °F 43.5 °F 30.21 in Calm     92 % 0.00 in
05:42 45.5 °F 43.3 °F 30.21 in Calm     92 % 0.00 in
05:47 45.2 °F 42.7 °F 30.21 in Calm     91 % 0.00 in
05:52 44.9 °F 42.7 °F 30.21 in Calm     92 % 0.00 in
05:57 44.7 °F 42.5 °F 30.21 in Calm     92 % 0.00 in
06:02 44.5 °F 42.3 °F 30.21 in Calm     92 % 0.00 in
06:07 44.3 °F 42.1 °F 30.21 in North 1.2 mph   92 % 0.00 in
06:12 44.2 °F 42.3 °F 30.21 in Calm     93 % 0.00 in
06:17 44.2 °F 42.3 °F 30.21 in Calm     93 % 0.00 in
06:22 44.3 °F 42.4 °F 30.21 in Calm     93 % 0.00 in
06:27 44.5 °F 42.9 °F 30.22 in Calm     94 % 0.00 in
06:32 44.5 °F 42.9 °F 30.22 in Calm     94 % 0.00 in
06:37 44.5 °F 42.6 °F 30.22 in Calm     93 % 0.00 in
06:42 44.5 °F 42.9 °F 30.22 in Calm     94 % 0.00 in
06:47 44.5 °F 42.9 °F 30.22 in Calm     94 % 0.00 in
06:52 44.6 °F 43.0 °F 30.22 in Calm     94 % 0.00 in
06:57 44.6 °F 43.0 °F 30.22 in Calm     94 % 0.00 in
07:02 44.6 °F 43.0 °F 30.23 in Calm     94 % 0.00 in
07:03 44.6 °F 43.0 °F 30.23 in Calm     94 % 0.00 in
07:08 44.8 °F 43.2 °F 30.23 in Calm     94 % 0.00 in
07:13 44.9 °F 43.3 °F 30.23 in Calm     94 % 0.00 in
07:18 45.1 °F 43.5 °F 30.23 in Calm     94 % 0.00 in
07:20 45.3 °F 43.7 °F 30.23 in Calm     94 % 0.00 in
07:25 45.7 °F 44.1 °F 30.23 in Calm     94 % 0.00 in
07:30 46.0 °F 44.4 °F 30.24 in Calm     94 % 0.00 in
07:35 46.4 °F 44.8 °F 30.25 in Calm     94 % 0.00 in
07:40 46.9 °F 45.0 °F 30.25 in Calm     93 % 0.00 in
07:45 47.3 °F 45.1 °F 30.25 in Calm     92 % 0.00 in
07:50 47.9 °F 45.7 °F 30.25 in Calm     92 % 0.00 in
07:55 48.7 °F 46.2 °F 30.25 in Calm     91 % 0.00 in
08:00 49.5 °F 46.7 °F 30.25 in Calm     90 % 0.00 in
08:05 50.5 °F 47.4 °F 30.25 in Calm     89 % 0.00 in
08:10 51.6 °F 48.2 °F 30.25 in Calm     88 % 0.00 in
08:15 52.1 °F 48.0 °F 30.25 in SE 1.2 mph   86 % 0.00 in
08:20 52.9 °F 48.8 °F 30.25 in SE 1.2 mph   86 % 0.00 in
08:25 53.7 °F 49.3 °F 30.25 in SE 1.2 mph 1.2 mph 85 % 0.00 in
08:30 54.2 °F 49.1 °F 30.25 in SSE 1.2 mph 1.2 mph 83 % 0.00 in
08:35 54.9 °F 49.5 °F 30.25 in ESE 2.3 mph 2.3 mph 82 % 0.00 in
08:40 55.6 °F 49.5 °F 30.25 in SSE 1.2 mph 1.2 mph 80 % 0.00 in
08:45 56.2 °F 49.8 °F 30.25 in SSE 1.2 mph 1.2 mph 79 % 0.00 in
08:50 56.8 °F 50.0 °F 30.25 in South 1.2 mph   78 % 0.00 in
08:55 57.5 °F 50.3 °F 30.25 in ESE 1.2 mph 1.2 mph 77 % 0.00 in
09:00 57.8 °F 50.3 °F 30.25 in East 2.0 mph 2.0 mph 76 % 0.00 in
09:05 57.9 °F 50.4 °F 30.24 in Calm     76 % 0.00 in
09:10 58.6 °F 50.7 °F 30.24 in SE 1.2 mph 1.2 mph 75 % 0.00 in
09:15 59.0 °F 50.4 °F 30.24 in Calm   0.1 mph 73 % 0.00 in
09:20 59.1 °F 49.7 °F 30.24 in SE 1.2 mph 1.2 mph 71 % 0.00 in
09:25 59.0 °F 50.0 °F 30.24 in Calm     72 % 0.00 in
09:30 59.5 °F 50.1 °F 30.24 in SW 2.0 mph 2.0 mph 71 % 0.00 in
09:35 59.8 °F 50.4 °F 30.23 in SSE 2.0 mph 2.0 mph 71 % 0.00 in
09:40 59.9 °F 50.1 °F 30.23 in East 2.3 mph 2.3 mph 70 % 0.00 in
09:45 60.2 °F 50.4 °F 30.23 in SE 2.3 mph 2.3 mph 70 % 0.00 in
09:50 60.5 °F 50.3 °F 30.23 in ESE 3.5 mph 3.5 mph 69 % 0.00 in
09:55 60.8 °F 50.6 °F 30.23 in SE 2.3 mph 2.3 mph 69 % 0.00 in
10:00 61.1 °F 50.5 °F 30.23 in ESE 2.3 mph 2.3 mph 68 % 0.00 in
10:01 61.1 °F 50.8 °F 30.24 in SE 2.3 mph 2.3 mph 69 % 0.00 in
10:06 61.6 °F 51.3 °F 30.23 in East 2.3 mph 2.3 mph 69 % 0.00 in
10:11 61.9 °F 51.2 °F 30.23 in SE 2.3 mph 2.3 mph 68 % 0.00 in
10:16 62.4 °F 51.3 °F 30.23 in SE 2.3 mph 2.3 mph 67 % 0.00 in
10:21 62.8 °F 51.7 °F 30.23 in SSE 1.2 mph 1.2 mph 67 % 0.00 in
10:26 63.3 °F 51.7 °F 30.23 in NNW 2.3 mph 2.3 mph 66 % 0.00 in
10:31 63.7 °F 51.7 °F 30.23 in SE 2.3 mph 2.3 mph 65 % 0.00 in
10:36 64.2 °F 52.2 °F 30.22 in WNW 1.2 mph 1.2 mph 65 % 0.00 in
10:41 64.4 °F 52.8 °F 30.22 in South 3.5 mph 3.5 mph 66 % 0.00 in
10:46 64.8 °F 53.2 °F 30.22 in South 2.3 mph 2.3 mph 66 % 0.00 in
10:51 65.1 °F 53.0 °F 30.22 in SSW 3.5 mph 3.5 mph 65 % 0.00 in
10:56 65.4 °F 52.5 °F 30.21 in ESE 4.6 mph 4.6 mph 63 % 0.00 in
11:01 65.4 °F 52.9 °F 30.21 in ESE 5.8 mph 5.8 mph 64 % 0.00 in
11:06 65.5 °F 52.6 °F 30.21 in SSW 3.5 mph 3.5 mph 63 % 0.00 in
11:11 65.8 °F 53.3 °F 30.21 in SE 1.2 mph   64 % 0.00 in
11:13 66.0 °F 52.6 °F 30.20 in SSE 5.0 mph 5.0 mph 62 % 0.00 in
11:18 66.3 °F 53.3 °F 30.20 in SSW 2.3 mph 2.3 mph 63 % 0.00 in
11:23 66.7 °F 53.3 °F 30.20 in SW 2.3 mph 2.3 mph 62 % 0.00 in
11:28 66.9 °F 53.0 °F 30.20 in SSE 4.0 mph 4.0 mph 61 % 0.00 in
11:33 66.9 °F 53.0 °F 30.20 in Calm     61 % 0.00 in
11:38 67.5 °F 53.1 °F 30.19 in WNW 2.3 mph 2.3 mph 60 % 0.00 in
11:43 67.9 °F 53.5 °F 30.19 in SSE 1.2 mph 1.2 mph 60 % 0.00 in
11:48 68.0 °F 53.1 °F 30.19 in East 1.2 mph 1.2 mph 59 % 0.00 in
11:53 68.1 °F 53.2 °F 30.19 in SE 1.2 mph 1.2 mph 59 % 0.00 in
11:58 68.0 °F 52.7 °F 30.18 in NW 3.5 mph 3.5 mph 58 % 0.00 in
12:03 67.7 °F 53.8 °F 30.18 in WSW 2.3 mph 2.3 mph 61 % 0.00 in
12:08 67.8 °F 52.9 °F 30.18 in West 3.5 mph 3.5 mph 59 % 0.00 in
12:13 67.8 °F 53.4 °F 30.18 in NNW 3.5 mph 3.5 mph 60 % 0.00 in
12:18 68.2 °F 53.3 °F 30.17 in SE 3.5 mph 3.5 mph 59 % 0.00 in
12:23 68.3 °F 52.9 °F 30.17 in NNW 2.3 mph 2.3 mph 58 % 0.00 in
12:28 68.0 °F 53.1 °F 30.17 in WNW 1.2 mph   59 % 0.00 in
12:33 67.9 °F 52.6 °F 30.17 in NW 2.3 mph 2.3 mph 58 % 0.00 in
12:38 68.0 °F 53.6 °F 30.17 in SSE 1.2 mph 1.2 mph 60 % 0.00 in
12:43 67.9 °F 52.6 °F 30.17 in SSW 1.2 mph   58 % 0.00 in
12:48 68.2 °F 53.8 °F 30.16 in SE 1.2 mph 1.2 mph 60 % 0.00 in
12:53 68.5 °F 53.1 °F 30.16 in ESE 2.0 mph 2.0 mph 58 % 0.00 in
12:58 68.3 °F 52.9 °F 30.16 in Calm     58 % 0.00 in
13:03 68.6 °F 54.2 °F 30.16 in Calm     60 % 0.00 in
13:08 68.6 °F 53.2 °F 30.15 in Calm     58 % 0.00 in
13:13 68.6 °F 53.7 °F 30.15 in SE 2.3 mph 2.3 mph 59 % 0.00 in
13:18 69.0 °F 53.1 °F 30.15 in ESE 2.3 mph 2.3 mph 57 % 0.00 in
13:23 69.1 °F 53.7 °F 30.15 in SE 2.0 mph 2.0 mph 58 % 0.00 in
13:28 69.1 °F 54.2 °F 30.14 in SE 3.0 mph 3.0 mph 59 % 0.00 in
13:33 69.1 °F 53.2 °F 30.14 in ESE 1.2 mph 1.2 mph 57 % 0.00 in
13:38 69.0 °F 53.6 °F 30.14 in ESE 1.2 mph 1.2 mph 58 % 0.00 in
13:43 68.9 °F 53.5 °F 30.14 in Calm     58 % 0.00 in
13:48 69.0 °F 53.6 °F 30.14 in South 2.3 mph 2.3 mph 58 % 0.00 in
13:53 69.0 °F 53.6 °F 30.14 in South 1.2 mph   58 % 0.00 in
13:58 68.9 °F 53.0 °F 30.13 in East 1.2 mph 1.2 mph 57 % 0.00 in
14:03 68.8 °F 53.9 °F 30.13 in Calm     59 % 0.00 in
14:08 68.9 °F 53.5 °F 30.13 in NNW 1.0 mph 1.0 mph 58 % 0.00 in
14:13 68.4 °F 53.0 °F 30.13 in Calm     58 % 0.00 in
14:18 68.3 °F 53.9 °F 30.12 in NW 1.2 mph 1.2 mph 60 % 0.00 in
14:45 67.4 °F 53.9 °F 30.12 in WNW 1.2 mph 1.2 mph 62 % 0.00 in
14:50 67.2 °F 54.2 °F 30.12 in WSW 1.2 mph 1.2 mph 63 % 0.00 in
14:55 67.0 °F 54.0 °F 30.12 in WNW 1.2 mph   63 % 0.00 in
15:00 67.1 °F 54.5 °F 30.12 in Calm     64 % 0.00 in
15:05 67.1 °F 54.5 °F 30.12 in West 2.3 mph 2.3 mph 64 % 0.00 in
15:10 67.2 °F 54.6 °F 30.11 in Calm   0.4 mph 64 % 0.00 in
15:15 67.1 °F 54.5 °F 30.12 in Calm     64 % 0.00 in
15:20 67.0 °F 54.8 °F 30.12 in Calm     65 % 0.00 in
15:21 67.1 °F 54.9 °F 30.12 in Calm     65 % 0.00 in
15:26 66.9 °F 54.3 °F 30.11 in Calm     64 % 0.00 in
15:31 66.8 °F 54.7 °F 30.12 in Calm   0.1 mph 65 % 0.00 in
15:36 66.8 °F 55.1 °F 30.12 in Calm     66 % 0.00 in
15:41 66.7 °F 54.6 °F 30.12 in West 1.2 mph 1.2 mph 65 % 0.00 in
15:46 66.6 °F 54.5 °F 30.11 in Calm     65 % 0.00 in
15:51 66.4 °F 54.7 °F 30.11 in Calm     66 % 0.00 in
15:56 66.2 °F 54.5 °F 30.11 in WNW 1.2 mph 1.2 mph 66 % 0.00 in
16:01 65.9 °F 54.6 °F 30.11 in Calm     67 % 0.00 in
16:06 65.6 °F 54.8 °F 30.11 in Calm     68 % 0.00 in
16:11 65.3 °F 54.5 °F 30.11 in Calm     68 % 0.00 in
16:16 65.2 °F 54.4 °F 30.11 in Calm     68 % 0.00 in
16:21 64.9 °F 54.5 °F 30.11 in Calm     69 % 0.00 in
16:26 64.7 °F 54.3 °F 30.11 in Calm     69 % 0.00 in
16:31 64.5 °F 54.5 °F 30.11 in Calm     70 % 0.00 in
16:36 64.2 °F 54.6 °F 30.11 in Calm     71 % 0.00 in
16:38 64.0 °F 54.4 °F 30.11 in Calm     71 % 0.00 in
16:43 63.6 °F 54.4 °F 30.11 in Calm     72 % 0.00 in
16:48 63.1 °F 54.7 °F 30.11 in Calm     74 % 0.00 in
16:53 62.6 °F 54.6 °F 30.11 in Calm     75 % 0.00 in
16:58 62.2 °F 54.5 °F 30.11 in Calm     76 % 0.00 in
17:03 61.8 °F 54.5 °F 30.11 in Calm     77 % 0.00 in
17:08 61.6 °F 54.3 °F 30.11 in Calm     77 % 0.00 in
17:13 61.4 °F 54.5 °F 30.11 in Calm     78 % 0.00 in
17:18 60.9 °F 54.3 °F 30.11 in Calm     79 % 0.00 in
17:23 60.5 °F 54.3 °F 30.11 in Calm     80 % 0.00 in
17:29 59.9 °F 54.1 °F 30.12 in Calm     81 % 0.00 in
17:34 59.4 °F 53.9 °F 30.12 in Calm     82 % 0.00 in
17:39 59.0 °F 53.5 °F 30.12 in Calm     82 % 0.00 in
17:44 58.7 °F 53.5 °F 30.11 in Calm     83 % 0.00 in
17:49 58.4 °F 53.6 °F 30.11 in Calm     84 % 0.00 in
17:54 58.3 °F 53.5 °F 30.11 in Calm     84 % 0.00 in
17:59 58.0 °F 53.2 °F 30.11 in Calm     84 % 0.00 in
18:04 57.6 °F 53.1 °F 30.11 in Calm     85 % 0.00 in
18:09 57.3 °F 52.8 °F 30.11 in Calm     85 % 0.00 in
18:14 57.1 °F 53.0 °F 30.11 in Calm     86 % 0.00 in
18:19 56.8 °F 52.7 °F 30.12 in Calm     86 % 0.00 in
18:24 56.5 °F 52.4 °F 30.12 in Calm     86 % 0.00 in
18:29 56.2 °F 52.1 °F 30.12 in Calm     86 % 0.00 in
18:34 55.9 °F 52.1 °F 30.12 in Calm     87 % 0.00 in
18:39 55.7 °F 51.9 °F 30.12 in Calm     87 % 0.00 in
18:49 55.1 °F 51.6 °F 30.12 in Calm     88 % 0.00 in
18:54 55.0 °F 51.8 °F 30.12 in Calm     89 % 0.00 in
18:59 54.9 °F 51.7 °F 30.12 in Calm     89 % 0.00 in
19:04 54.6 °F 51.4 °F 30.12 in Calm     89 % 0.00 in
19:09 54.5 °F 51.3 °F 30.12 in Calm     89 % 0.00 in
19:14 54.6 °F 51.4 °F 30.13 in Calm     89 % 0.00 in
19:19 54.4 °F 50.9 °F 30.13 in Calm     88 % 0.00 in
19:23 54.2 °F 50.7 °F 30.13 in Calm     88 % 0.00 in
19:28 54.2 °F 51.0 °F 30.12 in Calm     89 % 0.00 in
19:30 54.2 °F 51.0 °F 30.13 in Calm     89 % 0.00 in
19:35 54.3 °F 51.1 °F 30.13 in Calm     89 % 0.00 in
19:40 54.3 °F 50.8 °F 30.12 in Calm     88 % 0.00 in
19:45 54.0 °F 50.5 °F 30.12 in Calm     88 % 0.00 in
19:50 53.7 °F 50.2 °F 30.13 in Calm     88 % 0.00 in
19:55 53.4 °F 49.9 °F 30.13 in Calm     88 % 0.00 in
20:00 53.2 °F 49.7 °F 30.13 in Calm     88 % 0.00 in
20:05 53.0 °F 49.8 °F 30.13 in Calm     89 % 0.00 in
20:10 52.7 °F 49.5 °F 30.13 in Calm     89 % 0.00 in
20:15 52.6 °F 49.4 °F 30.13 in Calm     89 % 0.00 in
20:20 52.4 °F 49.6 °F 30.13 in Calm     90 % 0.00 in
20:25 52.3 °F 49.5 °F 30.13 in Calm     90 % 0.00 in
20:31 52.1 °F 49.3 °F 30.13 in Calm     90 % 0.00 in
20:36 51.9 °F 49.1 °F 30.13 in Calm     90 % 0.00 in
20:41 51.7 °F 49.2 °F 30.13 in Calm     91 % 0.00 in
20:46 51.8 °F 49.3 °F 30.12 in Calm     91 % 0.00 in
20:51 51.8 °F 49.3 °F 30.13 in Calm     91 % 0.00 in
20:56 51.8 °F 49.3 °F 30.13 in Calm     91 % 0.00 in
21:01 51.6 °F 49.1 °F 30.12 in Calm     91 % 0.00 in
21:06 51.5 °F 49.0 °F 30.13 in Calm     91 % 0.00 in
21:11 51.3 °F 48.8 °F 30.13 in Calm     91 % 0.00 in
21:14 51.3 °F 48.8 °F 30.13 in Calm     91 % 0.00 in
21:19 51.0 °F 48.5 °F 30.12 in Calm     91 % 0.00 in
21:24 50.9 °F 48.4 °F 30.13 in Calm     91 % 0.00 in
21:29 50.8 °F 48.3 °F 30.12 in Calm     91 % 0.00 in
21:34 50.8 °F 48.6 °F 30.12 in Calm     92 % 0.00 in
21:39 50.8 °F 48.3 °F 30.12 in Calm     91 % 0.00 in
21:44 50.6 °F 48.1 °F 30.12 in Calm     91 % 0.00 in
21:49 50.4 °F 47.9 °F 30.12 in Calm     91 % 0.00 in
21:54 50.3 °F 47.8 °F 30.12 in Calm     91 % 0.00 in
21:59 50.2 °F 48.0 °F 30.12 in Calm     92 % 0.00 in
22:04 50.1 °F 47.9 °F 30.12 in Calm     92 % 0.00 in
22:09 50.0 °F 47.8 °F 30.12 in Calm     92 % 0.00 in
22:14 50.0 °F 47.8 °F 30.12 in Calm     92 % 0.00 in
22:19 50.0 °F 47.8 °F 30.12 in Calm     92 % 0.00 in
22:24 50.1 °F 47.9 °F 30.12 in Calm     92 % 0.00 in
22:29 50.1 °F 47.9 °F 30.12 in Calm     92 % 0.00 in
22:34 50.1 °F 47.9 °F 30.12 in Calm     92 % 0.00 in
22:39 50.2 °F 48.0 °F 30.12 in Calm     92 % 0.00 in
22:44 50.3 °F 48.1 °F 30.12 in Calm     92 % 0.00 in
22:49 50.4 °F 47.9 °F 30.12 in Calm     91 % 0.00 in
22:54 50.4 °F 47.9 °F 30.12 in Calm     91 % 0.00 in
22:59 50.4 °F 48.2 °F 30.12 in Calm     92 % 0.00 in
23:04 50.3 °F 48.1 °F 30.12 in Calm     92 % 0.00 in
23:09 50.1 °F 47.6 °F 30.12 in Calm     91 % 0.00 in
23:14 49.9 °F 47.4 °F 30.12 in Calm     91 % 0.00 in
23:19 49.7 °F 47.2 °F 30.12 in Calm     91 % 0.00 in
23:24 49.6 °F 47.1 °F 30.12 in Calm     91 % 0.00 in
23:29 49.4 °F 46.9 °F 30.12 in Calm     91 % 0.00 in
23:34 49.1 °F 46.6 °F 30.12 in Calm     91 % 0.00 in
23:39 49.0 °F 46.5 °F 30.12 in Calm     91 % 0.00 in
23:44 48.9 °F 46.7 °F 30.12 in Calm     92 % 0.00 in
23:49 49.1 °F 47.2 °F 30.12 in Calm     93 % 0.00 in
23:54 49.3 °F 47.4 °F 30.12 in Calm     93 % 0.00 in
23:59 49.2 °F 47.0 °F 30.12 in Calm     92 % 0.00 in
Park Place, Exeter, Tulare County, California, USA
Compliments of Weather Underground - 2.75 mb